createdAt,value
2022-11-01T00:02:24.072Z,16.00
2022-11-01T00:04:56.117Z,16.00
2022-11-01T00:07:25.269Z,16.00
2022-11-01T00:09:54.520Z,16.00
2022-11-01T00:12:23.541Z,16.00
2022-11-01T00:14:52.729Z,16.00
2022-11-01T00:17:21.900Z,15.90
2022-11-01T00:19:50.799Z,16.00
2022-11-01T00:22:22.762Z,15.90
2022-11-01T00:24:54.830Z,15.90
2022-11-01T00:27:24.204Z,15.90
2022-11-01T00:29:53.268Z,15.90
2022-11-01T00:32:22.350Z,15.90
2022-11-01T00:34:51.718Z,15.90
2022-11-01T00:37:22.282Z,16.00
2022-11-01T00:39:51.422Z,16.00
2022-11-01T00:42:20.356Z,16.00
2022-11-01T00:44:49.808Z,16.00
2022-11-01T00:47:18.797Z,16.00
2022-11-01T00:49:47.744Z,16.00
2022-11-01T00:52:16.804Z,16.00
2022-11-01T00:54:47.214Z,16.00
2022-11-01T00:57:16.183Z,16.00
2022-11-01T00:59:45.138Z,16.00
2022-11-01T01:02:14.359Z,16.00
2022-11-01T01:04:43.570Z,16.00
2022-11-01T01:07:13.747Z,16.00
2022-11-01T01:09:42.891Z,16.00
2022-11-01T01:12:13.486Z,16.00
2022-11-01T01:14:42.575Z,16.00
2022-11-01T01:17:11.592Z,16.00
2022-11-01T01:19:40.745Z,16.00
2022-11-01T01:22:10.052Z,16.00
2022-11-01T01:24:44.977Z,16.00
2022-11-01T01:27:16.491Z,16.00
2022-11-01T01:29:45.886Z,16.00
2022-11-01T01:32:16.434Z,16.00
2022-11-01T01:34:45.570Z,15.90
2022-11-01T01:37:16.242Z,15.90
2022-11-01T01:39:45.619Z,15.90
2022-11-01T01:42:25.595Z,15.90
2022-11-01T01:45:37.184Z,15.90
2022-11-01T01:48:19.081Z,15.80
2022-11-01T01:50:59.544Z,15.80
2022-11-01T01:53:34.289Z,15.80
2022-11-01T01:56:07.576Z,15.80
2022-11-01T01:58:44.682Z,15.80
2022-11-01T02:01:14.093Z,15.80
2022-11-01T02:03:45.119Z,15.80
2022-11-01T02:06:17.136Z,15.80
2022-11-01T02:08:51.419Z,15.70
2022-11-01T02:11:22.391Z,15.70
2022-11-01T02:13:53.422Z,15.80
2022-11-01T02:16:44.312Z,15.80
2022-11-01T02:20:00.048Z,15.70
2022-11-01T02:23:00.399Z,15.70
2022-11-01T02:26:02.530Z,15.70
2022-11-01T02:28:55.658Z,15.70
2022-11-01T02:31:58.307Z,15.70
2022-11-01T02:34:35.951Z,15.70
2022-11-01T02:37:16.249Z,15.70
2022-11-01T02:39:53.740Z,15.70
2022-11-01T02:42:29.428Z,15.70
2022-11-01T02:45:07.614Z,15.70
2022-11-01T02:47:38.158Z,15.70
2022-11-01T02:50:13.123Z,15.70
2022-11-01T02:52:43.547Z,15.70
2022-11-01T02:55:30.199Z,15.70
2022-11-01T02:58:03.659Z,15.70
2022-11-01T03:00:36.233Z,15.70
2022-11-01T03:03:15.617Z,15.70
2022-11-01T03:06:07.545Z,15.70
2022-11-01T03:08:42.443Z,15.70
2022-11-01T03:11:17.189Z,15.80
2022-11-01T03:14:01.854Z,15.70
2022-11-01T03:16:37.232Z,15.70
2022-11-01T03:19:18.346Z,15.70
2022-11-01T03:22:01.120Z,15.70
2022-11-01T03:24:38.122Z,15.80
2022-11-01T03:27:17.230Z,15.70
2022-11-01T03:29:57.285Z,15.80
2022-11-01T03:32:33.905Z,15.70
2022-11-01T03:35:06.573Z,15.70
2022-11-01T03:37:42.614Z,15.80
2022-11-01T03:40:16.171Z,15.80
2022-11-01T03:42:50.031Z,15.80
2022-11-01T03:45:25.395Z,15.80
2022-11-01T03:47:54.732Z,15.80
2022-11-01T03:50:27.199Z,15.80
2022-11-01T03:52:58.066Z,15.80
2022-11-01T03:55:27.397Z,15.80
2022-11-01T03:57:59.147Z,15.80
2022-11-01T04:00:30.775Z,15.80
2022-11-01T04:03:01.608Z,15.80
2022-11-01T04:05:35.627Z,15.80
2022-11-01T04:08:07.513Z,15.80
2022-11-01T04:10:36.891Z,15.80
2022-11-01T04:13:06.133Z,15.70
2022-11-01T04:15:52.731Z,15.80
2022-11-01T04:18:41.576Z,15.70
2022-11-01T04:21:15.253Z,15.70
2022-11-01T04:23:47.409Z,15.80
2022-11-01T04:26:19.276Z,15.70
2022-11-01T04:28:57.332Z,15.70
2022-11-01T04:31:27.908Z,15.80
2022-11-01T04:33:56.933Z,15.70
2022-11-01T04:36:26.550Z,15.70
2022-11-01T04:38:59.171Z,15.70
2022-11-01T04:41:31.042Z,15.70
2022-11-01T04:44:01.198Z,15.70
2022-11-01T04:46:32.935Z,15.70
2022-11-01T04:49:01.952Z,15.70
2022-11-01T04:51:31.489Z,15.70
2022-11-01T04:54:02.216Z,15.70
2022-11-01T04:56:31.354Z,15.70
2022-11-01T04:59:00.341Z,15.70
2022-11-01T05:01:29.446Z,15.70
2022-11-01T05:03:58.522Z,15.70
2022-11-01T05:06:27.627Z,15.70
2022-11-01T05:08:57.210Z,15.70
2022-11-01T05:11:27.752Z,15.70
2022-11-01T05:13:57.017Z,15.70
2022-11-01T05:16:26.061Z,15.70
2022-11-01T05:18:55.045Z,15.60
2022-11-01T05:21:26.802Z,15.70
2022-11-01T05:23:55.963Z,15.70
2022-11-01T05:26:28.027Z,15.70
2022-11-01T05:28:57.172Z,15.80
2022-11-01T05:31:26.217Z,15.80
2022-11-01T05:33:55.434Z,15.80
2022-11-01T05:36:26.049Z,15.80
2022-11-01T05:38:58.804Z,15.80
2022-11-01T05:41:29.876Z,15.80
2022-11-01T05:43:59.218Z,15.90
2022-11-01T05:46:28.326Z,15.90
2022-11-01T05:48:57.539Z,15.90
2022-11-01T05:51:27.001Z,15.90
2022-11-01T05:53:56.308Z,15.90
2022-11-01T05:56:25.404Z,16.00
2022-11-01T05:58:55.855Z,16.00
2022-11-01T06:01:24.900Z,16.00
2022-11-01T06:03:53.977Z,16.00
2022-11-01T06:06:23.170Z,16.00
2022-11-01T06:08:52.099Z,16.00
2022-11-01T06:11:21.042Z,16.00
2022-11-01T06:13:53.882Z,16.00
2022-11-01T06:16:25.653Z,16.00
2022-11-01T06:18:55.618Z,16.10
2022-11-01T06:21:27.631Z,16.10
2022-11-01T06:23:59.281Z,16.20
2022-11-01T06:26:28.268Z,16.20
2022-11-01T06:28:58.598Z,16.30
2022-11-01T06:31:29.090Z,16.20
2022-11-01T06:33:58.549Z,16.20
2022-11-01T06:36:27.822Z,16.20
2022-11-01T06:38:56.808Z,16.30
2022-11-01T06:41:25.868Z,16.30
2022-11-01T06:43:55.028Z,16.30
2022-11-01T06:46:23.962Z,16.30
2022-11-01T06:48:54.601Z,16.30
2022-11-01T06:51:24.120Z,16.30
2022-11-01T06:53:53.322Z,16.40
2022-11-01T06:56:22.401Z,16.40
2022-11-01T06:58:52.117Z,16.40
2022-11-01T07:01:22.504Z,16.40
2022-11-01T07:03:54.249Z,16.40
2022-11-01T07:06:24.455Z,16.40
2022-11-01T07:08:53.528Z,16.40
2022-11-01T07:11:24.380Z,16.40
2022-11-01T07:13:56.837Z,16.40
2022-11-01T07:16:25.815Z,16.30
2022-11-01T07:18:56.738Z,16.40
2022-11-01T07:21:26.381Z,16.40
2022-11-01T07:23:55.599Z,16.40
2022-11-01T07:26:24.705Z,16.40
2022-11-01T07:28:53.816Z,16.50
2022-11-01T07:31:22.960Z,16.50
2022-11-01T07:33:51.984Z,16.60
2022-11-01T07:36:22.403Z,16.60
2022-11-01T07:38:51.705Z,16.60
2022-11-01T07:41:20.607Z,16.70
2022-11-01T07:43:50.994Z,16.70
2022-11-01T07:46:20.046Z,16.80
2022-11-01T07:48:51.207Z,16.80
2022-11-01T07:51:21.898Z,16.70
2022-11-01T07:53:51.226Z,16.80
2022-11-01T07:56:22.854Z,16.80
2022-11-01T07:58:52.020Z,16.80
2022-11-01T08:01:21.164Z,16.80
2022-11-01T08:03:50.169Z,16.80
2022-11-01T08:06:19.455Z,16.80
2022-11-01T08:08:50.017Z,16.80
2022-11-01T08:11:19.166Z,16.70
2022-11-01T08:13:48.278Z,16.70
2022-11-01T08:16:18.481Z,16.70
2022-11-01T08:18:47.501Z,16.70
2022-11-01T08:21:19.050Z,16.70
2022-11-01T08:23:49.661Z,16.70
2022-11-01T08:26:18.689Z,16.70
2022-11-01T08:28:47.647Z,16.70
2022-11-01T08:31:16.801Z,16.70
2022-11-01T08:33:45.796Z,16.80
2022-11-01T08:36:15.530Z,16.80
2022-11-01T08:38:44.727Z,16.80
2022-11-01T08:41:15.258Z,16.90
2022-11-01T08:43:44.345Z,16.80
2022-11-01T08:46:13.785Z,16.80
2022-11-01T08:48:42.774Z,16.70
2022-11-01T08:51:12.379Z,16.60
2022-11-01T08:53:41.651Z,16.60
2022-11-01T08:56:10.647Z,16.60
2022-11-01T08:58:41.161Z,16.60
2022-11-01T09:01:10.288Z,16.70
2022-11-01T09:03:39.469Z,16.70
2022-11-01T09:06:08.953Z,16.80
2022-11-01T09:08:38.333Z,16.80
2022-11-01T09:11:07.783Z,16.90
2022-11-01T09:13:38.490Z,16.90
2022-11-01T09:16:10.056Z,17.00
2022-11-01T09:18:39.496Z,17.10
2022-11-01T09:21:08.605Z,17.20
2022-11-01T09:23:38.900Z,17.30
2022-11-01T09:26:11.477Z,17.40
2022-11-01T09:28:40.807Z,17.50
2022-11-01T09:31:21.989Z,17.60
2022-11-01T09:33:51.271Z,17.70
2022-11-01T09:36:21.460Z,18.00
2022-11-01T09:38:50.613Z,18.10
2022-11-01T09:41:33.692Z,18.30
2022-11-01T09:44:08.380Z,18.40
2022-11-01T09:46:48.312Z,18.20
2022-11-01T09:49:24.577Z,18.30
2022-11-01T09:51:53.778Z,18.40
2022-11-01T09:54:26.437Z,18.50
2022-11-01T09:57:13.738Z,18.40
2022-11-01T09:59:59.730Z,18.40
2022-11-01T10:03:23.708Z,18.40
2022-11-01T10:06:05.530Z,18.40
2022-11-01T10:08:54.530Z,18.30
2022-11-01T10:11:45.368Z,18.40
2022-11-01T10:14:35.991Z,18.30
2022-11-01T10:17:15.473Z,18.40
2022-11-01T10:19:50.751Z,18.50
2022-11-01T10:22:33.689Z,18.70
2022-11-01T10:25:10.368Z,18.80
2022-11-01T10:28:04.935Z,18.70
2022-11-01T10:30:41.367Z,18.70
2022-11-01T10:33:30.925Z,18.60
2022-11-01T10:36:05.776Z,18.70
2022-11-01T10:39:16.585Z,18.80
2022-11-01T10:41:39.291Z,18.80
2022-11-01T10:44:17.876Z,18.60
2022-11-01T10:46:52.878Z,18.70
2022-11-01T10:49:40.511Z,18.60
2022-11-01T10:52:25.939Z,18.50
2022-11-01T10:54:58.844Z,18.50
2022-11-01T10:57:39.197Z,18.50
2022-11-01T11:00:18.051Z,18.60
2022-11-01T11:02:51.315Z,18.50
2022-11-01T11:05:25.023Z,18.60
2022-11-01T11:07:57.944Z,18.60
2022-11-01T11:10:30.778Z,18.80
2022-11-01T11:13:06.019Z,18.90
2022-11-01T11:15:46.002Z,19.20
2022-11-01T11:18:26.541Z,19.20
2022-11-01T11:21:00.897Z,19.30
2022-11-01T11:23:34.897Z,19.40
2022-11-01T11:26:06.422Z,19.50
2022-11-01T11:28:46.360Z,20.10
2022-11-01T11:31:22.820Z,20.70
2022-11-01T11:33:56.221Z,21.00
2022-11-01T11:36:36.831Z,21.20
2022-11-01T11:39:08.590Z,21.10
2022-11-01T11:41:39.406Z,20.90
2022-11-01T11:44:42.268Z,20.60
2022-11-01T11:47:24.681Z,20.00
2022-11-01T11:49:56.778Z,19.90
2022-11-01T11:52:37.780Z,19.90
2022-11-01T11:55:31.480Z,19.90
2022-11-01T11:58:00.900Z,19.80
2022-11-01T12:00:33.072Z,19.70
2022-11-01T12:03:09.109Z,19.60
2022-11-01T12:05:39.280Z,19.40
2022-11-01T12:08:26.271Z,19.40
2022-11-01T12:11:01.511Z,19.40
2022-11-01T12:13:37.950Z,19.30
2022-11-01T12:16:25.728Z,19.20
2022-11-01T12:18:58.160Z,19.20
2022-11-01T12:21:31.572Z,19.20
2022-11-01T12:24:07.819Z,19.20
2022-11-01T12:26:39.984Z,19.10
2022-11-01T12:29:24.743Z,19.10
2022-11-01T12:31:58.889Z,19.20
2022-11-01T12:34:39.731Z,19.20
2022-11-01T12:37:20.294Z,19.50
2022-11-01T12:39:58.104Z,20.00
2022-11-01T12:42:36.088Z,20.60
2022-11-01T12:45:13.669Z,21.10
2022-11-01T12:47:49.958Z,21.50
2022-11-01T12:50:25.751Z,21.70
2022-11-01T12:53:03.108Z,21.70
2022-11-01T12:55:36.856Z,21.60
2022-11-01T12:58:15.841Z,21.20
2022-11-01T13:01:06.496Z,20.60
2022-11-01T13:03:49.864Z,20.40
2022-11-01T13:06:44.310Z,20.60
2022-11-01T13:09:24.204Z,20.70
2022-11-01T13:12:08.259Z,20.30
2022-11-01T13:14:58.758Z,20.00
2022-11-01T13:17:40.033Z,19.70
2022-11-01T13:20:30.737Z,19.70
2022-11-01T13:23:17.500Z,19.60
2022-11-01T13:25:55.756Z,19.50
2022-11-01T13:29:04.739Z,19.50
2022-11-01T13:31:49.501Z,19.60
2022-11-01T13:34:36.277Z,19.80
2022-11-01T13:37:18.615Z,19.60
2022-11-01T13:40:15.877Z,19.40
2022-11-01T13:42:54.854Z,19.00
2022-11-01T13:46:17.118Z,18.70
2022-11-01T13:49:20.891Z,18.60
2022-11-01T13:51:58.353Z,18.70
2022-11-01T13:54:33.585Z,18.80
2022-11-01T13:57:14.006Z,18.80
2022-11-01T13:59:55.688Z,18.80
2022-11-01T14:02:58.217Z,18.80
2022-11-01T14:05:46.578Z,18.80
2022-11-01T14:08:29.676Z,18.70
2022-11-01T14:10:58.902Z,18.50
2022-11-01T14:13:40.413Z,18.30
2022-11-01T14:16:28.371Z,18.20
2022-11-01T14:19:21.451Z,18.10
2022-11-01T14:22:00.608Z,18.00
2022-11-01T14:24:35.459Z,17.90
2022-11-01T14:27:25.667Z,17.90
2022-11-01T14:29:56.335Z,17.90
2022-11-01T14:32:31.059Z,18.00
2022-11-01T14:35:17.539Z,18.10
2022-11-01T14:37:57.547Z,18.30
2022-11-01T14:40:39.159Z,18.30
2022-11-01T14:43:19.887Z,18.00
2022-11-01T14:45:56.126Z,17.70
2022-11-01T14:48:32.295Z,17.40
2022-11-01T14:51:10.894Z,17.30
2022-11-01T14:53:41.794Z,17.10
2022-11-01T14:56:19.806Z,17.10
2022-11-01T14:58:49.413Z,17.00
2022-11-01T15:01:23.612Z,16.90
2022-11-01T15:03:56.865Z,16.80
2022-11-01T15:06:29.291Z,16.60
2022-11-01T15:09:03.154Z,16.50
2022-11-01T15:11:35.825Z,16.50
2022-11-01T15:14:10.317Z,16.40
2022-11-01T15:16:44.463Z,16.40
2022-11-01T15:19:23.236Z,16.30
2022-11-01T15:21:52.375Z,16.00
2022-11-01T15:24:27.347Z,15.80
2022-11-01T15:26:56.498Z,15.70
2022-11-01T15:29:26.301Z,15.70
2022-11-01T15:32:00.599Z,15.60
2022-11-01T15:34:32.176Z,15.50
2022-11-01T15:37:12.559Z,15.40
2022-11-01T15:39:43.146Z,15.30
2022-11-01T15:42:17.002Z,15.20
2022-11-01T15:44:46.446Z,15.10
2022-11-01T15:47:22.883Z,14.90
2022-11-01T15:49:58.080Z,14.80
2022-11-01T15:52:32.073Z,14.70
2022-11-01T15:55:13.147Z,14.50
2022-11-01T15:57:48.625Z,14.20
2022-11-01T16:00:22.426Z,13.90
2022-11-01T16:03:01.938Z,13.70
2022-11-01T16:05:36.654Z,13.40
2022-11-01T16:08:10.625Z,13.10
2022-11-01T16:10:46.035Z,13.00
2022-11-01T16:13:20.056Z,12.90
2022-11-01T16:16:06.427Z,12.70
2022-11-01T16:18:41.855Z,12.40
2022-11-01T16:21:30.110Z,12.40
2022-11-01T16:24:14.156Z,12.30
2022-11-01T16:27:00.415Z,12.30
2022-11-01T16:29:51.565Z,12.20
2022-11-01T16:32:26.335Z,12.10
2022-11-01T16:34:56.622Z,11.90
2022-11-01T16:37:27.731Z,11.70
2022-11-01T16:39:58.060Z,11.70
2022-11-01T16:42:29.678Z,11.80
2022-11-01T16:44:59.478Z,11.80
2022-11-01T16:47:28.751Z,11.70
2022-11-01T16:49:57.815Z,11.60
2022-11-01T16:52:26.883Z,11.60
2022-11-01T16:54:55.911Z,11.70
2022-11-01T16:57:30.277Z,11.60
2022-11-01T16:59:59.261Z,11.60
2022-11-01T17:02:31.654Z,11.50
2022-11-01T17:05:21.130Z,11.30
2022-11-01T17:07:50.289Z,11.10
2022-11-01T17:10:23.520Z,10.90
2022-11-01T17:12:57.861Z,10.70
2022-11-01T17:15:29.393Z,10.70
2022-11-01T17:17:58.683Z,10.60
2022-11-01T17:20:30.035Z,10.60
2022-11-01T17:23:00.359Z,10.60
2022-11-01T17:25:32.644Z,10.50
2022-11-01T17:28:03.354Z,10.40
2022-11-01T17:30:32.784Z,10.20
2022-11-01T17:33:01.881Z,10.10
2022-11-01T17:35:30.876Z,9.90
2022-11-01T17:38:00.175Z,9.80
2022-11-01T17:40:30.035Z,9.80
2022-11-01T17:42:59.171Z,10.00
2022-11-01T17:45:29.867Z,10.10
2022-11-01T17:47:59.385Z,10.10
2022-11-01T17:50:28.370Z,10.10
2022-11-01T17:52:57.378Z,10.10
2022-11-01T17:55:26.486Z,10.00
2022-11-01T17:57:55.668Z,9.90
2022-11-01T18:00:24.641Z,9.80
2022-11-01T18:02:55.083Z,9.70
2022-11-01T18:05:24.951Z,9.60
2022-11-01T18:07:57.157Z,9.60
2022-11-01T18:10:38.134Z,9.60
2022-11-01T18:13:34.193Z,9.50
2022-11-01T18:16:09.978Z,9.50
2022-11-01T18:19:17.395Z,9.60
2022-11-01T18:21:59.059Z,9.80
2022-11-01T18:24:36.904Z,9.70
2022-11-01T18:27:11.938Z,9.60
2022-11-01T18:29:47.421Z,9.50
2022-11-01T18:32:25.394Z,9.40
2022-11-01T18:35:06.832Z,9.50
2022-11-01T18:37:48.804Z,9.60
2022-11-01T18:40:25.947Z,9.80
2022-11-01T18:42:56.969Z,9.80
2022-11-01T18:45:33.923Z,9.80
2022-11-01T18:48:22.568Z,10.00
2022-11-01T18:51:03.860Z,10.20
2022-11-01T18:53:35.366Z,10.30
2022-11-01T18:56:21.638Z,10.50
2022-11-01T18:58:52.557Z,10.90
2022-11-01T19:01:24.581Z,11.20
2022-11-01T19:04:03.298Z,11.50
2022-11-01T19:06:34.686Z,11.50
2022-11-01T19:09:21.758Z,11.70
2022-11-01T19:11:58.745Z,11.80
2022-11-01T19:14:28.911Z,11.70
2022-11-01T19:16:59.048Z,11.60
2022-11-01T19:19:28.143Z,11.40
2022-11-01T19:22:05.057Z,11.30
2022-11-01T19:24:38.958Z,11.10
2022-11-01T19:27:28.611Z,10.90
2022-11-01T19:30:00.787Z,10.80
2022-11-01T19:32:30.451Z,10.80
2022-11-01T19:35:01.421Z,10.70
2022-11-01T19:37:36.535Z,10.80
2022-11-01T19:40:27.401Z,11.00
2022-11-01T19:42:58.752Z,11.00
2022-11-01T19:45:34.180Z,11.00
2022-11-01T19:48:06.083Z,11.20
2022-11-01T19:50:42.792Z,11.30
2022-11-01T19:53:23.982Z,11.40
2022-11-01T19:56:00.683Z,11.50
2022-11-01T19:58:42.154Z,11.60
2022-11-01T20:01:41.036Z,11.60
2022-11-01T20:04:26.951Z,11.70
2022-11-01T20:07:03.682Z,11.70
2022-11-01T20:09:39.034Z,11.80
2022-11-01T20:12:09.729Z,11.90
2022-11-01T20:14:39.205Z,12.00
2022-11-01T20:17:08.306Z,12.00
2022-11-01T20:19:37.548Z,12.00
2022-11-01T20:22:07.102Z,12.10
2022-11-01T20:24:37.453Z,12.10
2022-11-01T20:27:06.407Z,12.20
2022-11-01T20:29:35.547Z,12.30
2022-11-01T20:32:04.841Z,12.30
2022-11-01T20:34:33.939Z,12.30
2022-11-01T20:39:54.216Z,12.30
2022-11-01T20:42:24.594Z,12.30
2022-11-01T20:44:53.583Z,12.30
2022-11-01T20:47:22.792Z,12.30
2022-11-01T20:49:51.863Z,12.20
2022-11-01T20:55:14.219Z,12.00
2022-11-01T20:57:43.705Z,11.90
2022-11-01T21:00:14.697Z,12.00
2022-11-01T21:02:44.556Z,12.00
2022-11-01T21:05:24.064Z,12.00
2022-11-01T21:08:02.362Z,11.90
2022-11-01T21:10:36.176Z,11.90
2022-11-01T21:13:21.579Z,12.00
2022-11-01T21:15:52.052Z,12.10
2022-11-01T21:18:48.294Z,12.00
2022-11-01T21:21:45.475Z,12.20
2022-11-01T21:24:34.730Z,12.30
2022-11-01T21:30:21.788Z,12.20
2022-11-01T21:32:52.893Z,12.20
2022-11-01T21:35:41.302Z,12.20
2022-11-01T21:38:39.259Z,12.20
2022-11-01T21:41:34.488Z,12.10
2022-11-01T21:44:23.199Z,12.10
2022-11-01T21:46:55.314Z,12.10
2022-11-01T21:49:30.788Z,12.10
2022-11-01T21:52:01.810Z,12.10
2022-11-01T21:54:34.106Z,12.10
2022-11-01T21:57:05.165Z,12.20
2022-11-01T21:59:39.437Z,12.10
2022-11-01T22:02:12.476Z,12.10
2022-11-01T22:04:42.112Z,12.00
2022-11-01T22:07:12.448Z,11.80
2022-11-01T22:09:41.796Z,11.70
2022-11-01T22:12:11.232Z,11.70
2022-11-01T22:14:41.673Z,11.60
2022-11-01T22:17:10.735Z,11.70
2022-11-01T22:19:39.784Z,11.70
2022-11-01T22:22:08.856Z,11.70
2022-11-01T22:24:38.021Z,11.70
2022-11-01T22:27:06.888Z,11.60
2022-11-01T22:29:36.024Z,11.50
2022-11-01T22:32:06.746Z,11.30
2022-11-01T22:34:35.866Z,11.40
2022-11-01T22:37:13.705Z,11.30
2022-11-01T22:39:43.521Z,11.40
2022-11-01T22:42:18.325Z,11.40
2022-11-01T22:44:51.457Z,11.40
2022-11-01T22:47:28.690Z,11.30
2022-11-01T22:50:04.037Z,11.30
2022-11-01T22:52:36.844Z,11.20
2022-11-01T22:55:22.605Z,11.30
2022-11-01T22:57:56.362Z,11.20
2022-11-01T23:00:31.924Z,11.20
2022-11-01T23:03:16.208Z,11.20
2022-11-01T23:05:45.259Z,11.00
2022-11-01T23:08:25.058Z,11.10
2022-11-01T23:10:54.989Z,11.00
2022-11-01T23:13:45.724Z,11.00
2022-11-01T23:16:26.473Z,11.00
2022-11-01T23:19:02.129Z,11.10
2022-11-01T23:21:31.528Z,11.00
2022-11-01T23:24:01.961Z,10.90
2022-11-01T23:26:32.736Z,10.80
2022-11-01T23:29:03.452Z,10.70
2022-11-01T23:31:32.742Z,10.60
2022-11-01T23:34:03.234Z,10.50
2022-11-01T23:36:37.665Z,10.50
2022-11-01T23:39:12.309Z,10.60
2022-11-01T23:41:44.531Z,10.70
2022-11-01T23:44:27.067Z,10.60
2022-11-01T23:47:02.159Z,10.70
2022-11-01T23:49:36.008Z,10.70
2022-11-01T23:52:21.493Z,10.70
2022-11-01T23:54:50.451Z,10.70
2022-11-01T23:57:22.953Z,10.70
2022-11-01T23:59:53.900Z,10.60
